sensor_id;sensor_type;location;lat;lon;timestamp;P1;durP1;ratioP1;P2;durP2;ratioP2
13793;SDS011;31160;49.500;7.772;2023-07-02T00:02:17;3.00;;;1.30;;
13793;SDS011;31160;49.500;7.772;2023-07-02T00:04:45;2.80;;;1.57;;
13793;SDS011;31160;49.500;7.772;2023-07-02T00:07:13;1.50;;;1.30;;
13793;SDS011;31160;49.500;7.772;2023-07-02T00:09:41;4.70;;;1.47;;
13793;SDS011;31160;49.500;7.772;2023-07-02T00:12:08;3.53;;;1.80;;
13793;SDS011;31160;49.500;7.772;2023-07-02T00:14:35;1.80;;;1.30;;
13793;SDS011;31160;49.500;7.772;2023-07-02T00:17:01;3.03;;;1.30;;
13793;SDS011;31160;49.500;7.772;2023-07-02T00:19:29;3.80;;;1.50;;
13793;SDS011;31160;49.500;7.772;2023-07-02T00:21:56;6.43;;;1.30;;
13793;SDS011;31160;49.500;7.772;2023-07-02T00:24:24;3.07;;;1.80;;
13793;SDS011;31160;49.500;7.772;2023-07-02T00:26:51;3.53;;;1.80;;
13793;SDS011;31160;49.500;7.772;2023-07-02T00:29:17;2.90;;;1.60;;
13793;SDS011;31160;49.500;7.772;2023-07-02T00:31:44;2.07;;;1.50;;
13793;SDS011;31160;49.500;7.772;2023-07-02T00:34:11;4.20;;;2.00;;
13793;SDS011;31160;49.500;7.772;2023-07-02T00:36:39;3.20;;;1.60;;
13793;SDS011;31160;49.500;7.772;2023-07-02T00:39:07;9.50;;;1.60;;
13793;SDS011;31160;49.500;7.772;2023-07-02T00:41:34;4.10;;;1.70;;
13793;SDS011;31160;49.500;7.772;2023-07-02T00:44:01;2.73;;;1.70;;
13793;SDS011;31160;49.500;7.772;2023-07-02T00:46:28;2.73;;;1.70;;
13793;SDS011;31160;49.500;7.772;2023-07-02T00:48:55;3.10;;;1.60;;
13793;SDS011;31160;49.500;7.772;2023-07-02T00:51:23;3.47;;;1.60;;
13793;SDS011;31160;49.500;7.772;2023-07-02T00:53:54;2.77;;;1.50;;
13793;SDS011;31160;49.500;7.772;2023-07-02T00:56:22;5.23;;;1.70;;
13793;SDS011;31160;49.500;7.772;2023-07-02T00:58:52;2.77;;;1.47;;
13793;SDS011;31160;49.500;7.772;2023-07-02T01:01:21;4.43;;;2.00;;
13793;SDS011;31160;49.500;7.772;2023-07-02T01:04:10;4.47;;;1.90;;
13793;SDS011;31160;49.500;7.772;2023-07-02T01:06:39;2.30;;;1.53;;
13793;SDS011;31160;49.500;7.772;2023-07-02T01:09:07;2.17;;;1.70;;
13793;SDS011;31160;49.500;7.772;2023-07-02T01:11:46;2.53;;;1.80;;
13793;SDS011;31160;49.500;7.772;2023-07-02T01:14:19;3.10;;;1.53;;
13793;SDS011;31160;49.500;7.772;2023-07-02T01:16:56;2.23;;;1.47;;
13793;SDS011;31160;49.500;7.772;2023-07-02T01:19:35;5.67;;;1.97;;
13793;SDS011;31160;49.500;7.772;2023-07-02T01:22:11;3.17;;;1.70;;
13793;SDS011;31160;49.500;7.772;2023-07-02T01:24:39;4.77;;;2.23;;
13793;SDS011;31160;49.500;7.772;2023-07-02T01:27:06;3.07;;;1.80;;
13793;SDS011;31160;49.500;7.772;2023-07-02T01:29:33;2.83;;;1.70;;
13793;SDS011;31160;49.500;7.772;2023-07-02T01:32:03;3.80;;;1.60;;
13793;SDS011;31160;49.500;7.772;2023-07-02T01:34:30;4.53;;;2.10;;
13793;SDS011;31160;49.500;7.772;2023-07-02T01:36:57;2.90;;;1.67;;
13793;SDS011;31160;49.500;7.772;2023-07-02T01:39:24;3.00;;;1.90;;
13793;SDS011;31160;49.500;7.772;2023-07-02T01:41:53;4.07;;;2.00;;
13793;SDS011;31160;49.500;7.772;2023-07-02T01:44:34;5.30;;;2.00;;
13793;SDS011;31160;49.500;7.772;2023-07-02T01:47:01;3.37;;;1.60;;
13793;SDS011;31160;49.500;7.772;2023-07-02T01:49:28;5.20;;;2.03;;
13793;SDS011;31160;49.500;7.772;2023-07-02T01:51:55;4.73;;;2.00;;
13793;SDS011;31160;49.500;7.772;2023-07-02T01:54:24;3.17;;;2.13;;
13793;SDS011;31160;49.500;7.772;2023-07-02T01:56:53;5.63;;;2.20;;
13793;SDS011;31160;49.500;7.772;2023-07-02T01:59:24;4.30;;;2.43;;
13793;SDS011;31160;49.500;7.772;2023-07-02T02:01:51;4.03;;;2.40;;
13793;SDS011;31160;49.500;7.772;2023-07-02T02:04:18;3.83;;;2.13;;
13793;SDS011;31160;49.500;7.772;2023-07-02T02:06:45;3.70;;;2.23;;
13793;SDS011;31160;49.500;7.772;2023-07-02T02:09:12;4.33;;;2.27;;
13793;SDS011;31160;49.500;7.772;2023-07-02T02:11:39;5.20;;;2.00;;
13793;SDS011;31160;49.500;7.772;2023-07-02T02:14:10;3.67;;;2.20;;
13793;SDS011;31160;49.500;7.772;2023-07-02T02:16:37;3.83;;;2.37;;
13793;SDS011;31160;49.500;7.772;2023-07-02T02:19:04;5.37;;;2.57;;
13793;SDS011;31160;49.500;7.772;2023-07-02T02:21:31;4.43;;;2.37;;
13793;SDS011;31160;49.500;7.772;2023-07-02T02:23:58;5.43;;;2.60;;
13793;SDS011;31160;49.500;7.772;2023-07-02T02:26:26;4.00;;;2.40;;
13793;SDS011;31160;49.500;7.772;2023-07-02T02:28:52;4.53;;;2.53;;
13793;SDS011;31160;49.500;7.772;2023-07-02T02:31:19;4.83;;;2.20;;
13793;SDS011;31160;49.500;7.772;2023-07-02T02:33:46;4.77;;;2.13;;
13793;SDS011;31160;49.500;7.772;2023-07-02T02:36:14;5.40;;;2.63;;
13793;SDS011;31160;49.500;7.772;2023-07-02T02:38:42;4.53;;;2.63;;
13793;SDS011;31160;49.500;7.772;2023-07-02T02:41:09;5.13;;;2.37;;
13793;SDS011;31160;49.500;7.772;2023-07-02T02:43:43;3.30;;;2.43;;
13793;SDS011;31160;49.500;7.772;2023-07-02T02:46:18;4.50;;;2.20;;
13793;SDS011;31160;49.500;7.772;2023-07-02T02:48:49;4.63;;;2.60;;
13793;SDS011;31160;49.500;7.772;2023-07-02T02:51:17;7.53;;;2.63;;
13793;SDS011;31160;49.500;7.772;2023-07-02T02:53:44;3.70;;;2.60;;
13793;SDS011;31160;49.500;7.772;2023-07-02T02:56:11;6.00;;;2.50;;
13793;SDS011;31160;49.500;7.772;2023-07-02T02:58:37;5.30;;;3.00;;
13793;SDS011;31160;49.500;7.772;2023-07-02T03:01:04;4.70;;;2.40;;
13793;SDS011;31160;49.500;7.772;2023-07-02T03:03:38;6.17;;;3.07;;
13793;SDS011;31160;49.500;7.772;2023-07-02T03:06:05;4.67;;;2.80;;
13793;SDS011;31160;49.500;7.772;2023-07-02T03:08:32;5.10;;;2.70;;
13793;SDS011;31160;49.500;7.772;2023-07-02T03:10:59;7.97;;;2.77;;
13793;SDS011;31160;49.500;7.772;2023-07-02T03:13:26;4.40;;;2.70;;
13793;SDS011;31160;49.500;7.772;2023-07-02T03:15:52;7.03;;;2.90;;
13793;SDS011;31160;49.500;7.772;2023-07-02T03:18:19;5.53;;;2.90;;
13793;SDS011;31160;49.500;7.772;2023-07-02T03:20:46;6.73;;;2.70;;
13793;SDS011;31160;49.500;7.772;2023-07-02T03:23:13;3.97;;;2.40;;
13793;SDS011;31160;49.500;7.772;2023-07-02T03:25:40;6.13;;;2.67;;
13793;SDS011;31160;49.500;7.772;2023-07-02T03:28:06;5.17;;;2.70;;
13793;SDS011;31160;49.500;7.772;2023-07-02T03:30:33;5.70;;;2.50;;
13793;SDS011;31160;49.500;7.772;2023-07-02T03:33:00;4.63;;;2.70;;
13793;SDS011;31160;49.500;7.772;2023-07-02T03:35:27;5.33;;;3.20;;
13793;SDS011;31160;49.500;7.772;2023-07-02T03:37:53;5.30;;;2.43;;
13793;SDS011;31160;49.500;7.772;2023-07-02T03:40:20;5.47;;;2.67;;
13793;SDS011;31160;49.500;7.772;2023-07-02T03:42:47;4.47;;;2.60;;
13793;SDS011;31160;49.500;7.772;2023-07-02T03:45:14;5.20;;;2.70;;
13793;SDS011;31160;49.500;7.772;2023-07-02T03:47:40;5.37;;;2.80;;
13793;SDS011;31160;49.500;7.772;2023-07-02T03:50:08;5.33;;;2.57;;
13793;SDS011;31160;49.500;7.772;2023-07-02T03:52:35;7.13;;;3.43;;
13793;SDS011;31160;49.500;7.772;2023-07-02T03:55:02;5.73;;;2.80;;
13793;SDS011;31160;49.500;7.772;2023-07-02T03:57:29;5.97;;;2.60;;
13793;SDS011;31160;49.500;7.772;2023-07-02T03:59:56;5.20;;;2.70;;
13793;SDS011;31160;49.500;7.772;2023-07-02T04:02:23;3.57;;;2.60;;
13793;SDS011;31160;49.500;7.772;2023-07-02T04:04:50;4.77;;;2.60;;
13793;SDS011;31160;49.500;7.772;2023-07-02T04:07:17;5.27;;;2.50;;
13793;SDS011;31160;49.500;7.772;2023-07-02T04:09:43;6.43;;;2.93;;
13793;SDS011;31160;49.500;7.772;2023-07-02T04:12:10;3.10;;;2.50;;
13793;SDS011;31160;49.500;7.772;2023-07-02T04:14:37;4.10;;;2.40;;
13793;SDS011;31160;49.500;7.772;2023-07-02T04:17:03;5.23;;;2.83;;
13793;SDS011;31160;49.500;7.772;2023-07-02T04:19:31;5.73;;;3.33;;
13793;SDS011;31160;49.500;7.772;2023-07-02T04:21:57;8.97;;;4.03;;
13793;SDS011;31160;49.500;7.772;2023-07-02T04:24:24;5.50;;;2.83;;
13793;SDS011;31160;49.500;7.772;2023-07-02T04:26:52;5.00;;;2.87;;
13793;SDS011;31160;49.500;7.772;2023-07-02T04:29:39;5.67;;;3.33;;
13793;SDS011;31160;49.500;7.772;2023-07-02T04:32:06;5.70;;;3.03;;
13793;SDS011;31160;49.500;7.772;2023-07-02T04:34:33;7.47;;;3.53;;
13793;SDS011;31160;49.500;7.772;2023-07-02T04:37:03;8.27;;;3.87;;
13793;SDS011;31160;49.500;7.772;2023-07-02T04:39:31;8.23;;;3.90;;
13793;SDS011;31160;49.500;7.772;2023-07-02T04:41:57;7.83;;;3.70;;
13793;SDS011;31160;49.500;7.772;2023-07-02T04:44:24;7.90;;;4.13;;
13793;SDS011;31160;49.500;7.772;2023-07-02T04:46:57;7.37;;;3.23;;
13793;SDS011;31160;49.500;7.772;2023-07-02T04:49:25;7.33;;;3.30;;
13793;SDS011;31160;49.500;7.772;2023-07-02T04:51:52;8.47;;;3.77;;
13793;SDS011;31160;49.500;7.772;2023-07-02T04:54:20;5.17;;;3.40;;
13793;SDS011;31160;49.500;7.772;2023-07-02T04:56:47;7.63;;;4.30;;
13793;SDS011;31160;49.500;7.772;2023-07-02T04:59:14;6.63;;;3.83;;
13793;SDS011;31160;49.500;7.772;2023-07-02T05:01:41;8.10;;;3.97;;
13793;SDS011;31160;49.500;7.772;2023-07-02T05:04:12;8.30;;;4.60;;
13793;SDS011;31160;49.500;7.772;2023-07-02T05:06:38;7.73;;;4.10;;
13793;SDS011;31160;49.500;7.772;2023-07-02T05:09:05;8.47;;;4.50;;
13793;SDS011;31160;49.500;7.772;2023-07-02T05:11:32;10.40;;;4.60;;
13793;SDS011;31160;49.500;7.772;2023-07-02T05:13:59;11.37;;;5.20;;
13793;SDS011;31160;49.500;7.772;2023-07-02T05:16:25;11.87;;;5.43;;
13793;SDS011;31160;49.500;7.772;2023-07-02T05:18:52;12.40;;;6.40;;
13793;SDS011;31160;49.500;7.772;2023-07-02T05:21:19;11.93;;;6.90;;
13793;SDS011;31160;49.500;7.772;2023-07-02T05:23:47;9.10;;;5.40;;
13793;SDS011;31160;49.500;7.772;2023-07-02T05:26:14;11.57;;;6.47;;
13793;SDS011;31160;49.500;7.772;2023-07-02T05:28:41;10.27;;;6.20;;
13793;SDS011;31160;49.500;7.772;2023-07-02T05:31:07;11.87;;;6.30;;
13793;SDS011;31160;49.500;7.772;2023-07-02T05:33:34;13.53;;;6.93;;
13793;SDS011;31160;49.500;7.772;2023-07-02T05:36:01;9.93;;;6.47;;
13793;SDS011;31160;49.500;7.772;2023-07-02T05:38:27;11.10;;;6.57;;
13793;SDS011;31160;49.500;7.772;2023-07-02T05:40:54;18.17;;;7.23;;
13793;SDS011;31160;49.500;7.772;2023-07-02T05:43:21;12.73;;;7.30;;
13793;SDS011;31160;49.500;7.772;2023-07-02T05:45:49;14.90;;;6.73;;
13793;SDS011;31160;49.500;7.772;2023-07-02T05:48:17;11.97;;;7.13;;
13793;SDS011;31160;49.500;7.772;2023-07-02T05:50:44;16.90;;;7.60;;
13793;SDS011;31160;49.500;7.772;2023-07-02T05:53:11;11.33;;;7.30;;
13793;SDS011;31160;49.500;7.772;2023-07-02T05:55:38;19.27;;;7.97;;
13793;SDS011;31160;49.500;7.772;2023-07-02T05:58:05;13.37;;;8.00;;
13793;SDS011;31160;49.500;7.772;2023-07-02T06:00:33;12.70;;;7.03;;
13793;SDS011;31160;49.500;7.772;2023-07-02T06:03:00;12.07;;;7.33;;
13793;SDS011;31160;49.500;7.772;2023-07-02T06:05:27;15.43;;;8.00;;
13793;SDS011;31160;49.500;7.772;2023-07-02T06:07:55;14.13;;;8.33;;
13793;SDS011;31160;49.500;7.772;2023-07-02T06:10:21;15.70;;;7.90;;
13793;SDS011;31160;49.500;7.772;2023-07-02T06:12:48;13.53;;;8.03;;
13793;SDS011;31160;49.500;7.772;2023-07-02T06:15:15;15.27;;;7.90;;
13793;SDS011;31160;49.500;7.772;2023-07-02T06:17:42;11.80;;;7.63;;
13793;SDS011;31160;49.500;7.772;2023-07-02T06:20:09;15.27;;;7.73;;
13793;SDS011;31160;49.500;7.772;2023-07-02T06:22:36;17.27;;;8.73;;
13793;SDS011;31160;49.500;7.772;2023-07-02T06:25:02;16.27;;;8.37;;
13793;SDS011;31160;49.500;7.772;2023-07-02T06:27:31;15.90;;;8.67;;
13793;SDS011;31160;49.500;7.772;2023-07-02T06:29:58;16.20;;;8.07;;
13793;SDS011;31160;49.500;7.772;2023-07-02T06:32:24;14.77;;;8.53;;
13793;SDS011;31160;49.500;7.772;2023-07-02T06:34:51;13.17;;;8.10;;
13793;SDS011;31160;49.500;7.772;2023-07-02T06:37:18;15.40;;;7.97;;
13793;SDS011;31160;49.500;7.772;2023-07-02T06:39:44;13.13;;;8.37;;
13793;SDS011;31160;49.500;7.772;2023-07-02T06:42:11;15.43;;;8.50;;
13793;SDS011;31160;49.500;7.772;2023-07-02T06:44:38;17.47;;;8.97;;
13793;SDS011;31160;49.500;7.772;2023-07-02T06:47:06;16.87;;;8.83;;
13793;SDS011;31160;49.500;7.772;2023-07-02T06:49:33;15.40;;;8.87;;
13793;SDS011;31160;49.500;7.772;2023-07-02T06:52:00;16.83;;;8.87;;
13793;SDS011;31160;49.500;7.772;2023-07-02T06:54:27;18.27;;;9.63;;
13793;SDS011;31160;49.500;7.772;2023-07-02T06:56:53;14.43;;;9.30;;
13793;SDS011;31160;49.500;7.772;2023-07-02T06:59:22;19.60;;;9.90;;
13793;SDS011;31160;49.500;7.772;2023-07-02T07:01:50;14.77;;;8.53;;
13793;SDS011;31160;49.500;7.772;2023-07-02T07:04:17;13.67;;;9.37;;
13793;SDS011;31160;49.500;7.772;2023-07-02T07:06:44;16.03;;;9.80;;
13793;SDS011;31160;49.500;7.772;2023-07-02T07:09:10;15.17;;;9.67;;
13793;SDS011;31160;49.500;7.772;2023-07-02T07:11:37;18.47;;;10.03;;
13793;SDS011;31160;49.500;7.772;2023-07-02T07:14:04;20.87;;;10.30;;
13793;SDS011;31160;49.500;7.772;2023-07-02T07:16:31;16.60;;;10.10;;
13793;SDS011;31160;49.500;7.772;2023-07-02T07:18:57;19.77;;;11.30;;
13793;SDS011;31160;49.500;7.772;2023-07-02T07:21:24;19.60;;;11.40;;
13793;SDS011;31160;49.500;7.772;2023-07-02T07:23:51;21.87;;;12.00;;
13793;SDS011;31160;49.500;7.772;2023-07-02T07:26:17;18.23;;;11.20;;
13793;SDS011;31160;49.500;7.772;2023-07-02T07:28:44;18.53;;;12.17;;
13793;SDS011;31160;49.500;7.772;2023-07-02T07:31:11;19.53;;;11.47;;
13793;SDS011;31160;49.500;7.772;2023-07-02T07:33:38;21.10;;;12.17;;
13793;SDS011;31160;49.500;7.772;2023-07-02T07:36:04;21.13;;;12.17;;
13793;SDS011;31160;49.500;7.772;2023-07-02T07:38:31;20.50;;;12.10;;
13793;SDS011;31160;49.500;7.772;2023-07-02T07:40:58;20.77;;;12.13;;
13793;SDS011;31160;49.500;7.772;2023-07-02T07:43:25;23.53;;;13.30;;
13793;SDS011;31160;49.500;7.772;2023-07-02T07:45:51;22.10;;;12.20;;
13793;SDS011;31160;49.500;7.772;2023-07-02T07:48:18;23.07;;;13.03;;
13793;SDS011;31160;49.500;7.772;2023-07-02T07:50:45;19.37;;;12.77;;
13793;SDS011;31160;49.500;7.772;2023-07-02T07:53:12;21.73;;;12.97;;
13793;SDS011;31160;49.500;7.772;2023-07-02T07:55:39;20.37;;;13.00;;
13793;SDS011;31160;49.500;7.772;2023-07-02T07:58:06;22.13;;;12.67;;
13793;SDS011;31160;49.500;7.772;2023-07-02T08:00:33;20.37;;;12.27;;
13793;SDS011;31160;49.500;7.772;2023-07-02T08:02:59;21.37;;;12.63;;
13793;SDS011;31160;49.500;7.772;2023-07-02T08:05:27;19.63;;;12.47;;
13793;SDS011;31160;49.500;7.772;2023-07-02T08:07:54;21.10;;;13.07;;
13793;SDS011;31160;49.500;7.772;2023-07-02T08:10:21;20.33;;;12.30;;
13793;SDS011;31160;49.500;7.772;2023-07-02T08:12:48;23.47;;;12.70;;
13793;SDS011;31160;49.500;7.772;2023-07-02T08:15:15;21.33;;;13.70;;
13793;SDS011;31160;49.500;7.772;2023-07-02T08:17:42;22.93;;;12.63;;
13793;SDS011;31160;49.500;7.772;2023-07-02T08:20:09;22.63;;;13.20;;
13793;SDS011;31160;49.500;7.772;2023-07-02T08:22:39;21.20;;;12.90;;
13793;SDS011;31160;49.500;7.772;2023-07-02T08:25:06;22.77;;;13.20;;
13793;SDS011;31160;49.500;7.772;2023-07-02T08:27:34;21.30;;;12.13;;
13793;SDS011;31160;49.500;7.772;2023-07-02T08:30:01;20.63;;;12.10;;
13793;SDS011;31160;49.500;7.772;2023-07-02T08:32:28;21.47;;;13.37;;
13793;SDS011;31160;49.500;7.772;2023-07-02T08:34:55;19.43;;;12.50;;
13793;SDS011;31160;49.500;7.772;2023-07-02T08:37:22;24.93;;;12.83;;
13793;SDS011;31160;49.500;7.772;2023-07-02T08:39:48;21.87;;;11.87;;
13793;SDS011;31160;49.500;7.772;2023-07-02T08:42:16;20.30;;;12.07;;
13793;SDS011;31160;49.500;7.772;2023-07-02T08:44:45;23.27;;;12.90;;
13793;SDS011;31160;49.500;7.772;2023-07-02T08:47:13;20.43;;;12.87;;
13793;SDS011;31160;49.500;7.772;2023-07-02T08:49:41;23.53;;;11.80;;
13793;SDS011;31160;49.500;7.772;2023-07-02T08:52:08;24.13;;;13.13;;
13793;SDS011;31160;49.500;7.772;2023-07-02T08:54:35;19.70;;;13.17;;
13793;SDS011;31160;49.500;7.772;2023-07-02T08:57:01;24.33;;;12.60;;
13793;SDS011;31160;49.500;7.772;2023-07-02T08:59:31;19.53;;;12.80;;
13793;SDS011;31160;49.500;7.772;2023-07-02T09:01:58;21.60;;;13.17;;
13793;SDS011;31160;49.500;7.772;2023-07-02T09:04:25;23.20;;;13.43;;
13793;SDS011;31160;49.500;7.772;2023-07-02T09:07:05;20.53;;;12.67;;
13793;SDS011;31160;49.500;7.772;2023-07-02T09:09:45;24.63;;;13.43;;
13793;SDS011;31160;49.500;7.772;2023-07-02T09:12:29;21.87;;;12.60;;
13793;SDS011;31160;49.500;7.772;2023-07-02T09:15:01;19.07;;;12.77;;
13793;SDS011;31160;49.500;7.772;2023-07-02T09:17:31;23.33;;;13.20;;
13793;SDS011;31160;49.500;7.772;2023-07-02T09:19:59;23.33;;;12.77;;
13793;SDS011;31160;49.500;7.772;2023-07-02T09:22:28;20.90;;;12.97;;
13793;SDS011;31160;49.500;7.772;2023-07-02T09:24:56;22.27;;;13.40;;
13793;SDS011;31160;49.500;7.772;2023-07-02T09:27:40;19.40;;;11.97;;
13793;SDS011;31160;49.500;7.772;2023-07-02T09:30:09;21.57;;;10.67;;
13793;SDS011;31160;49.500;7.772;2023-07-02T09:32:42;17.30;;;10.53;;
13793;SDS011;31160;49.500;7.772;2023-07-02T09:35:10;19.17;;;10.77;;
13793;SDS011;31160;49.500;7.772;2023-07-02T09:37:36;19.93;;;12.27;;
13793;SDS011;31160;49.500;7.772;2023-07-02T09:40:05;22.00;;;12.50;;
13793;SDS011;31160;49.500;7.772;2023-07-02T09:42:35;18.77;;;12.67;;
13793;SDS011;31160;49.500;7.772;2023-07-02T09:45:03;17.73;;;12.17;;
13793;SDS011;31160;49.500;7.772;2023-07-02T09:47:35;21.20;;;13.67;;
13793;SDS011;31160;49.500;7.772;2023-07-02T09:50:11;25.10;;;15.90;;
13793;SDS011;31160;49.500;7.772;2023-07-02T09:52:39;22.93;;;12.20;;
13793;SDS011;31160;49.500;7.772;2023-07-02T09:55:07;20.37;;;12.37;;
13793;SDS011;31160;49.500;7.772;2023-07-02T09:57:34;18.87;;;11.60;;
13793;SDS011;31160;49.500;7.772;2023-07-02T10:00:03;16.40;;;11.27;;
13793;SDS011;31160;49.500;7.772;2023-07-02T10:02:31;17.23;;;11.60;;
13793;SDS011;31160;49.500;7.772;2023-07-02T10:04:58;21.77;;;12.47;;
13793;SDS011;31160;49.500;7.772;2023-07-02T10:07:26;17.63;;;11.40;;
13793;SDS011;31160;49.500;7.772;2023-07-02T10:09:54;21.67;;;12.30;;
13793;SDS011;31160;49.500;7.772;2023-07-02T10:12:24;19.70;;;11.60;;
13793;SDS011;31160;49.500;7.772;2023-07-02T10:14:53;19.27;;;11.90;;
13793;SDS011;31160;49.500;7.772;2023-07-02T10:17:24;18.53;;;11.47;;
13793;SDS011;31160;49.500;7.772;2023-07-02T10:19:52;19.10;;;11.80;;
13793;SDS011;31160;49.500;7.772;2023-07-02T10:22:20;18.10;;;11.80;;
13793;SDS011;31160;49.500;7.772;2023-07-02T10:25:05;19.80;;;11.60;;
13793;SDS011;31160;49.500;7.772;2023-07-02T10:27:33;21.17;;;11.43;;
13793;SDS011;31160;49.500;7.772;2023-07-02T10:30:04;17.97;;;11.07;;
13793;SDS011;31160;49.500;7.772;2023-07-02T10:32:32;19.23;;;12.47;;
13793;SDS011;31160;49.500;7.772;2023-07-02T10:35:01;17.37;;;11.63;;
13793;SDS011;31160;49.500;7.772;2023-07-02T10:37:36;17.63;;;11.20;;
13793;SDS011;31160;49.500;7.772;2023-07-02T10:40:05;20.43;;;11.67;;
13793;SDS011;31160;49.500;7.772;2023-07-02T10:42:33;15.27;;;10.67;;
13793;SDS011;31160;49.500;7.772;2023-07-02T10:45:02;17.87;;;10.93;;
13793;SDS011;31160;49.500;7.772;2023-07-02T10:47:29;19.10;;;11.30;;
13793;SDS011;31160;49.500;7.772;2023-07-02T10:49:56;20.43;;;11.00;;
13793;SDS011;31160;49.500;7.772;2023-07-02T10:52:22;19.90;;;11.80;;
13793;SDS011;31160;49.500;7.772;2023-07-02T10:54:49;18.57;;;10.73;;
13793;SDS011;31160;49.500;7.772;2023-07-02T10:57:17;18.73;;;11.37;;
13793;SDS011;31160;49.500;7.772;2023-07-02T10:59:48;18.40;;;11.77;;
13793;SDS011;31160;49.500;7.772;2023-07-02T11:02:15;18.13;;;12.07;;
13793;SDS011;31160;49.500;7.772;2023-07-02T11:04:42;19.10;;;12.20;;
13793;SDS011;31160;49.500;7.772;2023-07-02T11:07:09;19.60;;;12.43;;
13793;SDS011;31160;49.500;7.772;2023-07-02T11:09:37;18.13;;;12.30;;
13793;SDS011;31160;49.500;7.772;2023-07-02T11:12:04;20.23;;;12.33;;
13793;SDS011;31160;49.500;7.772;2023-07-02T11:14:32;18.73;;;11.67;;
13793;SDS011;31160;49.500;7.772;2023-07-02T11:17:04;22.47;;;11.97;;
13793;SDS011;31160;49.500;7.772;2023-07-02T11:19:32;18.93;;;11.13;;
13793;SDS011;31160;49.500;7.772;2023-07-02T11:22:00;19.80;;;12.50;;
13793;SDS011;31160;49.500;7.772;2023-07-02T11:24:35;17.13;;;12.00;;
13793;SDS011;31160;49.500;7.772;2023-07-02T11:27:05;17.37;;;11.13;;
13793;SDS011;31160;49.500;7.772;2023-07-02T11:29:33;18.23;;;11.70;;
13793;SDS011;31160;49.500;7.772;2023-07-02T11:32:04;20.77;;;11.87;;
13793;SDS011;31160;49.500;7.772;2023-07-02T11:34:38;20.23;;;12.43;;
13793;SDS011;31160;49.500;7.772;2023-07-02T11:37:05;18.60;;;11.60;;
13793;SDS011;31160;49.500;7.772;2023-07-02T11:39:32;18.83;;;10.80;;
13793;SDS011;31160;49.500;7.772;2023-07-02T11:41:59;23.57;;;12.87;;
13793;SDS011;31160;49.500;7.772;2023-07-02T11:44:25;27.40;;;12.83;;
13793;SDS011;31160;49.500;7.772;2023-07-02T11:46:52;18.63;;;12.10;;
13793;SDS011;31160;49.500;7.772;2023-07-02T11:49:19;21.40;;;12.70;;
13793;SDS011;31160;49.500;7.772;2023-07-02T11:51:46;20.60;;;12.87;;
13793;SDS011;31160;49.500;7.772;2023-07-02T11:54:15;19.10;;;11.50;;
13793;SDS011;31160;49.500;7.772;2023-07-02T11:56:42;19.63;;;12.43;;
13793;SDS011;31160;49.500;7.772;2023-07-02T11:59:09;24.60;;;12.87;;
13793;SDS011;31160;49.500;7.772;2023-07-02T12:01:36;20.67;;;12.40;;
13793;SDS011;31160;49.500;7.772;2023-07-02T12:04:03;21.07;;;12.30;;
13793;SDS011;31160;49.500;7.772;2023-07-02T12:06:31;18.03;;;11.90;;
13793;SDS011;31160;49.500;7.772;2023-07-02T12:08:58;18.97;;;11.53;;
13793;SDS011;31160;49.500;7.772;2023-07-02T12:11:25;16.83;;;12.07;;
13793;SDS011;31160;49.500;7.772;2023-07-02T12:13:51;20.07;;;12.03;;
13793;SDS011;31160;49.500;7.772;2023-07-02T12:16:18;22.50;;;11.77;;
13793;SDS011;31160;49.500;7.772;2023-07-02T12:18:45;19.00;;;11.97;;
13793;SDS011;31160;49.500;7.772;2023-07-02T12:21:12;16.97;;;11.30;;
13793;SDS011;31160;49.500;7.772;2023-07-02T12:23:38;17.07;;;11.73;;
13793;SDS011;31160;49.500;7.772;2023-07-02T12:26:05;20.63;;;12.03;;
13793;SDS011;31160;49.500;7.772;2023-07-02T12:28:32;19.83;;;12.60;;
13793;SDS011;31160;49.500;7.772;2023-07-02T12:30:59;20.90;;;12.57;;
13793;SDS011;31160;49.500;7.772;2023-07-02T12:33:25;17.20;;;11.13;;
13793;SDS011;31160;49.500;7.772;2023-07-02T12:35:52;19.33;;;11.67;;
13793;SDS011;31160;49.500;7.772;2023-07-02T12:38:19;22.70;;;11.90;;
13793;SDS011;31160;49.500;7.772;2023-07-02T12:40:45;19.87;;;11.97;;
13793;SDS011;31160;49.500;7.772;2023-07-02T12:43:12;19.77;;;11.40;;
13793;SDS011;31160;49.500;7.772;2023-07-02T12:45:39;17.83;;;11.03;;
13793;SDS011;31160;49.500;7.772;2023-07-02T12:48:06;20.67;;;11.40;;
13793;SDS011;31160;49.500;7.772;2023-07-02T12:50:32;15.50;;;10.80;;
13793;SDS011;31160;49.500;7.772;2023-07-02T12:52:59;16.93;;;11.27;;
13793;SDS011;31160;49.500;7.772;2023-07-02T12:55:26;15.87;;;11.00;;
13793;SDS011;31160;49.500;7.772;2023-07-02T12:57:53;23.33;;;11.03;;
13793;SDS011;31160;49.500;7.772;2023-07-02T13:00:19;19.73;;;10.37;;
13793;SDS011;31160;49.500;7.772;2023-07-02T13:02:47;16.00;;;10.83;;
13793;SDS011;31160;49.500;7.772;2023-07-02T13:05:29;16.80;;;10.60;;
13793;SDS011;31160;49.500;7.772;2023-07-02T13:07:56;17.37;;;10.57;;
13793;SDS011;31160;49.500;7.772;2023-07-02T13:10:22;17.77;;;10.97;;
13793;SDS011;31160;49.500;7.772;2023-07-02T13:12:50;18.90;;;11.20;;
13793;SDS011;31160;49.500;7.772;2023-07-02T13:15:16;19.83;;;10.47;;
13793;SDS011;31160;49.500;7.772;2023-07-02T13:17:43;20.73;;;11.60;;
13793;SDS011;31160;49.500;7.772;2023-07-02T13:20:10;18.63;;;11.00;;
13793;SDS011;31160;49.500;7.772;2023-07-02T13:22:37;20.73;;;11.67;;
13793;SDS011;31160;49.500;7.772;2023-07-02T13:25:04;18.03;;;10.50;;
13793;SDS011;31160;49.500;7.772;2023-07-02T13:27:31;16.90;;;10.43;;
13793;SDS011;31160;49.500;7.772;2023-07-02T13:29:58;18.83;;;11.30;;
13793;SDS011;31160;49.500;7.772;2023-07-02T13:32:25;19.20;;;11.63;;
13793;SDS011;31160;49.500;7.772;2023-07-02T13:34:55;19.77;;;11.30;;
13793;SDS011;31160;49.500;7.772;2023-07-02T13:37:21;16.57;;;11.67;;
13793;SDS011;31160;49.500;7.772;2023-07-02T13:39:48;18.53;;;11.57;;
13793;SDS011;31160;49.500;7.772;2023-07-02T13:42:15;21.93;;;11.30;;
13793;SDS011;31160;49.500;7.772;2023-07-02T13:44:42;20.43;;;11.07;;
13793;SDS011;31160;49.500;7.772;2023-07-02T13:47:09;15.13;;;10.53;;
13793;SDS011;31160;49.500;7.772;2023-07-02T13:49:37;20.00;;;10.57;;
13793;SDS011;31160;49.500;7.772;2023-07-02T13:52:04;18.10;;;11.17;;
13793;SDS011;31160;49.500;7.772;2023-07-02T13:54:31;18.57;;;11.93;;
13793;SDS011;31160;49.500;7.772;2023-07-02T13:57:02;17.07;;;10.50;;
13793;SDS011;31160;49.500;7.772;2023-07-02T13:59:29;19.67;;;11.70;;
13793;SDS011;31160;49.500;7.772;2023-07-02T14:01:56;14.60;;;10.33;;
13793;SDS011;31160;49.500;7.772;2023-07-02T14:04:23;16.80;;;10.40;;
13793;SDS011;31160;49.500;7.772;2023-07-02T14:06:50;18.40;;;10.80;;
13793;SDS011;31160;49.500;7.772;2023-07-02T14:09:17;18.17;;;11.53;;
13793;SDS011;31160;49.500;7.772;2023-07-02T14:11:44;17.47;;;10.37;;
13793;SDS011;31160;49.500;7.772;2023-07-02T14:14:11;19.67;;;10.60;;
13793;SDS011;31160;49.500;7.772;2023-07-02T14:16:38;16.43;;;10.67;;
13793;SDS011;31160;49.500;7.772;2023-07-02T14:19:05;16.53;;;10.47;;
13793;SDS011;31160;49.500;7.772;2023-07-02T14:21:31;20.23;;;11.63;;
13793;SDS011;31160;49.500;7.772;2023-07-02T14:23:58;15.83;;;9.80;;
13793;SDS011;31160;49.500;7.772;2023-07-02T14:26:25;18.57;;;10.43;;
13793;SDS011;31160;49.500;7.772;2023-07-02T14:28:52;17.50;;;11.00;;
13793;SDS011;31160;49.500;7.772;2023-07-02T14:31:19;18.97;;;10.90;;
13793;SDS011;31160;49.500;7.772;2023-07-02T14:33:46;17.10;;;11.17;;
13793;SDS011;31160;49.500;7.772;2023-07-02T14:36:13;19.20;;;11.30;;
13793;SDS011;31160;49.500;7.772;2023-07-02T14:38:40;20.03;;;11.57;;